Time;durP1;ratioP1;P1;durP2;ratioP2;P2;SDS_P1;SDS_P2;PMS_P1;PMS_P2;Temp;Humidity;BMP_temperature;BMP_pressure;BME280_temperature;BME280_humidity;BME280_pressure;Samples;Min_cycle;Max_cycle;Signal;HPM_P1;HPM_P2
2022/07/07 00:02:05;;;;;;;1.13;1.00;;;15.20;99.00;;;;;;4975586;28;20964;-79
2022/07/07 00:04:31;;;;;;;0.40;0.40;;;15.20;99.00;;;;;;4974879;28;20950;-80
2022/07/07 00:06:59;;;;;;;0.50;0.50;;;15.20;99.20;;;;;;4975147;28;20469;-79
2022/07/07 00:09:27;;;;;;;0.73;0.63;;;15.20;99.40;;;;;;4975710;28;20457;-80
2022/07/07 00:11:54;;;;;;;0.50;0.50;;;15.30;99.30;;;;;;4975329;28;20583;-80
2022/07/07 00:14:21;;;;;;;0.40;0.30;;;15.30;98.90;;;;;;4975729;28;20445;-79
2022/07/07 00:16:49;;;;;;;0.80;0.50;;;15.20;99.10;;;;;;4975574;28;20481;-80
2022/07/07 00:19:16;;;;;;;0.40;0.40;;;15.30;99.00;;;;;;4975625;28;20476;-80
2022/07/07 00:21:43;;;;;;;0.40;0.40;;;15.20;98.70;;;;;;4975520;28;20453;-80
2022/07/07 00:24:10;;;;;;;0.43;0.40;;;15.20;99.10;;;;;;4975458;28;20456;-79
2022/07/07 00:26:37;;;;;;;0.60;0.40;;;15.20;99.40;;;;;;4975384;28;20476;-79
2022/07/07 00:29:03;;;;;;;0.60;0.60;;;15.10;99.30;;;;;;4975437;28;20453;-80
2022/07/07 00:31:30;;;;;;;0.70;0.47;;;15.10;99.70;;;;;;4974932;28;20487;-80
2022/07/07 00:33:58;;;;;;;1.17;0.60;;;15.00;99.60;;;;;;4975343;28;20460;-80
2022/07/07 00:36:25;;;;;;;3.67;0.50;;;15.00;99.90;;;;;;4974858;28;21003;-79
2022/07/07 00:38:52;;;;;;;0.43;0.43;;;15.00;99.90;;;;;;4974910;28;20445;-80
2022/07/07 00:41:18;;;;;;;0.40;0.30;;;15.00;99.70;;;;;;4975168;28;20457;-79
2022/07/07 00:43:45;;;;;;;0.40;0.30;;;15.00;99.90;;;;;;4975102;28;20449;-80
2022/07/07 00:46:13;;;;;;;1.13;0.50;;;15.00;99.90;;;;;;4975041;28;20453;-80
2022/07/07 00:48:41;;;;;;;0.30;0.30;;;15.00;99.90;;;;;;4975197;28;20457;-79
2022/07/07 00:51:11;;;;;;;1.73;0.40;;;15.00;99.90;;;;;;4974713;28;20477;-80
2022/07/07 00:53:39;;;;;;;0.47;0.47;;;14.90;99.90;;;;;;4974997;28;20440;-79
2022/07/07 00:56:06;;;;;;;0.60;0.40;;;15.00;99.90;;;;;;4974509;28;20445;-79
2022/07/07 00:58:34;;;;;;;0.50;0.50;;;15.00;99.90;;;;;;4974554;28;20868;-80
2022/07/07 01:01:01;;;;;;;0.40;0.37;;;15.00;99.90;;;;;;4974865;28;20454;-79
2022/07/07 01:03:29;;;;;;;0.30;0.30;;;15.00;99.90;;;;;;4974704;28;20465;-80
2022/07/07 01:05:57;;;;;;;0.70;0.53;;;15.00;99.90;;;;;;4974726;28;20449;-80
2022/07/07 01:08:25;;;;;;;0.50;0.50;;;14.90;99.90;;;;;;4974437;28;20450;-80
2022/07/07 01:10:52;;;;;;;0.50;0.50;;;15.00;99.90;;;;;;4974328;28;20445;-79
2022/07/07 01:13:19;;;;;;;0.40;0.40;;;15.00;99.90;;;;;;4974687;28;20426;-80
2022/07/07 01:15:45;;;;;;;0.50;0.50;;;15.00;99.90;;;;;;4974353;28;20449;-80
2022/07/07 01:18:12;;;;;;;0.50;0.50;;;15.00;99.60;;;;;;4974152;28;20483;-80
2022/07/07 01:20:43;;;;;;;0.40;0.40;;;15.10;99.60;;;;;;4974353;28;20950;-80
2022/07/07 01:23:11;;;;;;;0.80;0.50;;;15.20;99.70;;;;;;4974518;28;20429;-79
2022/07/07 01:25:38;;;;;;;0.50;0.50;;;15.20;99.70;;;;;;4974570;28;20468;-80
2022/07/07 01:28:05;;;;;;;0.70;0.60;;;15.10;99.90;;;;;;4974124;28;20469;-80
2022/07/07 01:30:32;;;;;;;1.47;0.50;;;15.20;99.90;;;;;;4974489;28;20449;-80
2022/07/07 01:32:58;;;;;;;0.40;0.40;;;15.10;99.90;;;;;;4974302;28;20477;-79
2022/07/07 01:35:25;;;;;;;0.40;0.40;;;15.20;99.90;;;;;;4974518;28;20453;-79
2022/07/07 01:37:52;;;;;;;1.33;0.43;;;15.10;99.80;;;;;;4974114;28;20976;-80
2022/07/07 01:40:20;;;;;;;0.50;0.40;;;15.10;99.80;;;;;;4974348;28;20453;-80
2022/07/07 01:42:47;;;;;;;0.40;0.40;;;15.10;99.70;;;;;;4974476;28;20504;-79
2022/07/07 01:45:13;;;;;;;0.40;0.30;;;15.10;99.70;;;;;;4974442;28;20827;-79
2022/07/07 01:47:40;;;;;;;3.60;0.60;;;15.10;99.70;;;;;;4974096;28;20478;-80
2022/07/07 01:50:08;;;;;;;0.70;0.40;;;15.00;99.80;;;;;;4974385;28;20457;-79
2022/07/07 01:52:35;;;;;;;1.00;0.63;;;15.00;99.70;;;;;;4974148;28;20491;-79
2022/07/07 01:55:02;;;;;;;0.47;0.40;;;15.00;99.80;;;;;;4974240;28;20544;-80
2022/07/07 01:57:30;;;;;;;0.40;0.40;;;15.00;99.90;;;;;;4974003;28;20476;-79
2022/07/07 01:59:56;;;;;;;0.60;0.40;;;15.00;99.90;;;;;;4973874;28;20450;-79
2022/07/07 02:02:24;;;;;;;0.40;0.40;;;15.00;99.90;;;;;;4974244;28;20444;-80
2022/07/07 02:04:51;;;;;;;0.60;0.47;;;15.00;99.90;;;;;;4973774;28;20515;-79
2022/07/07 02:07:18;;;;;;;0.77;0.40;;;15.00;99.90;;;;;;4973748;28;21007;-80
2022/07/07 02:09:45;;;;;;;0.40;0.37;;;15.00;99.90;;;;;;4974209;28;20457;-80
2022/07/07 02:12:11;;;;;;;0.60;0.60;;;14.90;99.90;;;;;;4973651;28;20505;-80
2022/07/07 02:14:39;;;;;;;0.70;0.50;;;14.90;99.90;;;;;;4974243;28;20827;-80
2022/07/07 02:17:06;;;;;;;0.93;0.40;;;14.80;99.90;;;;;;4973854;28;21019;-80
2022/07/07 02:19:33;;;;;;;0.70;0.67;;;14.80;99.90;;;;;;4974208;28;20456;-80
2022/07/07 02:22:01;;;;;;;1.63;1.53;;;14.80;99.90;;;;;;4974210;28;20452;-80
2022/07/07 02:24:28;;;;;;;0.30;0.30;;;14.80;99.90;;;;;;4973979;28;20472;-80
2022/07/07 02:26:54;;;;;;;0.63;0.57;;;14.80;99.90;;;;;;4974092;28;20844;-80
2022/07/07 02:29:21;;;;;;;0.50;0.50;;;14.80;99.90;;;;;;4976080;28;20976;-80
2022/07/07 02:31:49;;;;;;;0.60;0.53;;;14.80;99.90;;;;;;4977668;28;20481;-78
2022/07/07 02:34:16;;;;;;;0.50;0.50;;;14.80;99.90;;;;;;4977404;28;20818;-78
2022/07/07 02:36:43;;;;;;;0.50;0.50;;;14.80;99.90;;;;;;4977565;28;20471;-80
2022/07/07 02:39:09;;;;;;;1.07;0.50;;;14.80;99.90;;;;;;4977692;28;20437;-80
2022/07/07 02:41:36;;;;;;;0.63;0.50;;;14.80;99.90;;;;;;4977235;28;20815;-81
2022/07/07 02:44:03;;;;;;;0.87;0.50;;;14.80;99.90;;;;;;4977541;28;20461;-81
2022/07/07 02:46:30;;;;;;;0.40;0.40;;;14.70;99.90;;;;;;4977432;28;20484;-81
2022/07/07 02:48:58;;;;;;;0.40;0.40;;;14.70;99.90;;;;;;4977451;28;20555;-81
2022/07/07 02:51:25;;;;;;;0.50;0.50;;;14.70;99.90;;;;;;4977280;28;20449;-79
2022/07/07 02:53:52;;;;;;;0.40;0.40;;;14.70;99.90;;;;;;4977374;28;20870;-78
2022/07/07 02:56:19;;;;;;;0.40;0.40;;;14.70;99.90;;;;;;4977227;28;20525;-78
2022/07/07 02:58:46;;;;;;;0.53;0.50;;;14.70;99.90;;;;;;4977250;28;20445;-78
2022/07/07 03:01:12;;;;;;;0.40;0.33;;;14.70;99.90;;;;;;4977178;28;20457;-78
2022/07/07 03:03:39;;;;;;;0.50;0.50;;;14.70;99.90;;;;;;4976869;28;20449;-78
2022/07/07 03:06:07;;;;;;;0.40;0.40;;;14.80;99.90;;;;;;4977053;28;20453;-78
2022/07/07 03:08:34;;;;;;;0.63;0.50;;;14.80;99.90;;;;;;4977089;28;20525;-79
2022/07/07 03:11:00;;;;;;;0.93;0.50;;;14.80;99.90;;;;;;4976534;28;20480;-80
2022/07/07 03:13:28;;;;;;;0.40;0.37;;;14.80;99.90;;;;;;4976936;28;20480;-81
2022/07/07 03:15:55;;;;;;;1.00;0.50;;;14.80;99.90;;;;;;4976968;28;20499;-81
2022/07/07 03:18:21;;;;;;;1.20;0.50;;;14.80;99.90;;;;;;4976587;28;20945;-78
2022/07/07 03:20:48;;;;;;;0.80;0.70;;;14.80;99.90;;;;;;4976852;28;20454;-78
2022/07/07 03:23:16;;;;;;;0.77;0.40;;;14.80;99.90;;;;;;4976501;28;20972;-78
2022/07/07 03:25:43;;;;;;;0.50;0.40;;;14.80;99.90;;;;;;4976741;28;20445;-78
2022/07/07 03:28:09;;;;;;;0.50;0.50;;;14.70;99.90;;;;;;4976393;28;20481;-78
2022/07/07 03:30:36;;;;;;;0.50;0.50;;;14.70;99.90;;;;;;4976710;28;20784;-78
2022/07/07 03:33:04;;;;;;;0.50;0.40;;;14.70;99.90;;;;;;4977133;28;20493;-78
2022/07/07 03:35:30;;;;;;;0.43;0.43;;;14.70;99.90;;;;;;4976317;28;20548;-78
2022/07/07 03:37:57;;;;;;;1.43;0.60;;;14.70;99.90;;;;;;4976187;28;21013;-78
2022/07/07 03:40:25;;;;;;;0.60;0.60;;;14.60;99.90;;;;;;4976333;28;20453;-78
2022/07/07 03:42:52;;;;;;;0.50;0.50;;;14.60;99.90;;;;;;4976447;28;20809;-78
2022/07/07 03:45:19;;;;;;;0.40;0.40;;;14.60;99.90;;;;;;4976406;28;20478;-78
2022/07/07 03:47:46;;;;;;;0.40;0.40;;;14.60;99.90;;;;;;4976335;28;20465;-78
2022/07/07 03:50:12;;;;;;;1.43;0.50;;;14.70;99.90;;;;;;4976321;28;20802;-78
2022/07/07 03:52:39;;;;;;;1.90;0.50;;;14.70;99.90;;;;;;4975893;28;21000;-78
2022/07/07 03:55:07;;;;;;;1.00;0.60;;;14.60;99.90;;;;;;4976265;28;20457;-78
2022/07/07 03:57:36;;;;;;;0.40;0.40;;;14.70;99.90;;;;;;4976116;28;20472;-79
2022/07/07 04:00:03;;;;;;;0.40;0.40;;;14.70;99.90;;;;;;4976148;28;20456;-79
2022/07/07 04:02:30;;;;;;;0.40;0.40;;;14.70;99.90;;;;;;4976109;28;20442;-79
2022/07/07 04:04:57;;;;;;;1.60;0.60;;;14.70;99.90;;;;;;4976029;28;20453;-79
2022/07/07 04:07:23;;;;;;;0.50;0.47;;;14.80;99.90;;;;;;4975921;28;20469;-79
2022/07/07 04:09:50;;;;;;;0.50;0.50;;;14.80;99.90;;;;;;4975947;28;20452;-79
2022/07/07 04:12:17;;;;;;;0.77;0.50;;;14.70;99.90;;;;;;4975335;28;21005;-78
2022/07/07 04:14:45;;;;;;;0.60;0.60;;;14.80;99.90;;;;;;4975854;28;20452;-79
2022/07/07 04:17:11;;;;;;;0.70;0.43;;;14.80;99.90;;;;;;4975737;28;20469;-79
2022/07/07 04:19:39;;;;;;;0.50;0.50;;;14.80;99.90;;;;;;4975463;28;20937;-79
2022/07/07 04:22:06;;;;;;;1.33;0.57;;;14.90;99.90;;;;;;4975403;28;20453;-77
2022/07/07 04:24:33;;;;;;;1.10;0.60;;;14.90;99.90;;;;;;4975362;28;20953;-78
2022/07/07 04:27:00;;;;;;;0.60;0.60;;;14.80;99.90;;;;;;4975575;28;20469;-78
2022/07/07 04:29:27;;;;;;;0.30;0.30;;;14.80;99.90;;;;;;4975579;28;20449;-78
2022/07/07 04:31:55;;;;;;;0.40;0.40;;;14.90;99.90;;;;;;4975467;28;20456;-78
2022/07/07 04:34:22;;;;;;;0.50;0.50;;;14.80;99.90;;;;;;4975202;28;20949;-78
2022/07/07 04:36:48;;;;;;;0.73;0.40;;;14.90;99.90;;;;;;4975067;28;21031;-78
2022/07/07 04:39:15;;;;;;;0.60;0.50;;;14.80;99.90;;;;;;4975423;28;20445;-78
2022/07/07 04:41:42;;;;;;;0.50;0.50;;;14.80;99.90;;;;;;4975361;28;20476;-78
2022/07/07 04:44:09;;;;;;;0.60;0.50;;;14.80;99.90;;;;;;4975305;28;20456;-79
2022/07/07 04:46:36;;;;;;;2.97;0.63;;;14.80;99.90;;;;;;4974911;28;21004;-78
2022/07/07 04:49:04;;;;;;;0.50;0.50;;;14.80;99.90;;;;;;4974945;28;20941;-78
2022/07/07 04:51:31;;;;;;;0.50;0.50;;;14.80;99.90;;;;;;4974626;28;20448;-78
2022/07/07 04:53:58;;;;;;;0.40;0.40;;;14.80;99.90;;;;;;4975098;28;20492;-78
2022/07/07 04:56:25;;;;;;;0.60;0.60;;;14.70;99.90;;;;;;4974744;28;20469;-78
2022/07/07 04:58:51;;;;;;;0.87;0.50;;;14.70;99.90;;;;;;4975087;28;20819;-78
2022/07/07 05:01:18;;;;;;;0.40;0.40;;;14.70;99.90;;;;;;4974790;28;20810;-78
2022/07/07 05:03:45;;;;;;;0.67;0.50;;;14.60;99.90;;;;;;4975011;28;20456;-78
2022/07/07 05:06:13;;;;;;;0.40;0.30;;;14.70;99.90;;;;;;4975267;28;20476;-78
2022/07/07 05:08:40;;;;;;;0.80;0.50;;;14.70;99.90;;;;;;4974899;28;20449;-78
2022/07/07 05:11:07;;;;;;;0.70;0.70;;;14.80;99.90;;;;;;4974628;28;20481;-79
2022/07/07 05:13:34;;;;;;;0.53;0.53;;;15.00;99.90;;;;;;4974539;28;20837;-78
2022/07/07 05:16:02;;;;;;;0.40;0.40;;;15.00;99.90;;;;;;4974760;28;20456;-78
2022/07/07 05:18:29;;;;;;;0.50;0.50;;;15.10;99.90;;;;;;4974797;28;20547;-78
2022/07/07 05:20:56;;;;;;;0.40;0.30;;;15.20;99.90;;;;;;4974818;28;20453;-78
2022/07/07 05:23:26;;;;;;;0.53;0.53;;;15.30;99.90;;;;;;4975017;28;20446;-78
2022/07/07 05:25:53;;;;;;;0.40;0.40;;;15.40;99.90;;;;;;4975221;28;20457;-78
2022/07/07 05:28:19;;;;;;;0.70;0.60;;;15.50;99.90;;;;;;4974626;28;20476;-79
2022/07/07 05:30:46;;;;;;;0.53;0.53;;;15.50;99.90;;;;;;4974672;28;20454;-79
2022/07/07 05:33:13;;;;;;;0.40;0.40;;;15.50;99.90;;;;;;4974570;28;20511;-78
2022/07/07 05:35:40;;;;;;;0.80;0.57;;;15.50;99.90;;;;;;4974616;28;20449;-78
2022/07/07 05:38:07;;;;;;;1.17;0.87;;;15.50;99.90;;;;;;4974533;28;20469;-79
2022/07/07 05:40:35;;;;;;;0.40;0.40;;;15.60;99.90;;;;;;4974530;28;20457;-79
2022/07/07 05:43:01;;;;;;;0.40;0.40;;;15.60;99.90;;;;;;4974233;28;20441;-78
2022/07/07 05:45:28;;;;;;;0.77;0.50;;;15.70;99.90;;;;;;4974537;28;20455;-78
2022/07/07 05:47:55;;;;;;;0.87;0.50;;;15.80;99.90;;;;;;4974116;28;20820;-79
2022/07/07 05:50:21;;;;;;;1.63;0.60;;;16.00;99.90;;;;;;4974470;28;20453;-78
2022/07/07 05:52:48;;;;;;;0.80;0.50;;;16.10;99.90;;;;;;4974391;28;20480;-79
2022/07/07 05:55:15;;;;;;;0.70;0.60;;;16.20;99.90;;;;;;4974441;28;20450;-79
2022/07/07 05:57:43;;;;;;;0.50;0.40;;;16.20;99.90;;;;;;4974041;28;21012;-79
2022/07/07 06:00:11;;;;;;;1.10;1.00;;;16.30;99.90;;;;;;4974411;28;20448;-79
2022/07/07 06:02:37;;;;;;;0.50;0.50;;;16.30;99.90;;;;;;4974341;28;20445;-78
2022/07/07 06:05:05;;;;;;;0.90;0.50;;;16.50;99.90;;;;;;4977596;28;20953;-78
2022/07/07 06:07:32;;;;;;;0.50;0.50;;;16.60;99.90;;;;;;4978158;28;20576;-78
2022/07/07 06:09:59;;;;;;;0.80;0.60;;;16.80;99.90;;;;;;4977740;28;21000;-78
2022/07/07 06:12:26;;;;;;;0.83;0.40;;;17.00;99.90;;;;;;4977690;28;20485;-79
2022/07/07 06:14:54;;;;;;;0.50;0.50;;;17.10;99.90;;;;;;4978073;28;20457;-79
2022/07/07 06:17:21;;;;;;;0.40;0.40;;;17.30;99.90;;;;;;4977671;28;20996;-79
2022/07/07 06:19:47;;;;;;;0.53;0.53;;;17.40;99.90;;;;;;4977961;28;20433;-79
2022/07/07 06:22:14;;;;;;;0.50;0.50;;;17.50;99.90;;;;;;4977940;28;20449;-79
2022/07/07 06:24:42;;;;;;;0.70;0.63;;;17.80;99.90;;;;;;4977641;28;20949;-79
2022/07/07 06:27:08;;;;;;;0.70;0.53;;;18.10;99.90;;;;;;4977805;28;20473;-79
2022/07/07 06:29:35;;;;;;;0.50;0.50;;;18.40;99.90;;;;;;4977778;28;20462;-79
2022/07/07 06:32:04;;;;;;;0.50;0.50;;;18.80;99.90;;;;;;4977807;28;20453;-79
2022/07/07 06:34:31;;;;;;;0.80;0.50;;;18.90;99.70;;;;;;4977358;28;21075;-79
2022/07/07 06:36:58;;;;;;;0.60;0.57;;;18.90;99.90;;;;;;4977635;28;20476;-79
2022/07/07 06:39:24;;;;;;;1.03;0.40;;;19.00;99.90;;;;;;4977369;28;20945;-79
2022/07/07 06:41:52;;;;;;;0.50;0.50;;;19.20;99.90;;;;;;4977584;28;20444;-79
2022/07/07 06:44:18;;;;;;;1.83;0.90;;;19.30;99.40;;;;;;4977561;28;20453;-79
2022/07/07 06:46:45;;;;;;;1.00;0.50;;;19.60;99.80;;;;;;4977152;28;20992;-79
2022/07/07 06:49:13;;;;;;;0.50;0.50;;;19.80;99.10;;;;;;4977665;28;20461;-79
2022/07/07 06:51:40;;;;;;;2.60;0.40;;;20.10;98.60;;;;;;4977445;28;20449;-79
2022/07/07 06:54:07;;;;;;;0.97;0.53;;;20.40;98.20;;;;;;4977297;28;20484;-79
2022/07/07 06:56:34;;;;;;;0.93;0.60;;;20.70;97.90;;;;;;4977263;28;20472;-79
2022/07/07 06:59:01;;;;;;;0.40;0.40;;;20.70;97.50;;;;;;4976984;28;20449;-79
2022/07/07 07:01:27;;;;;;;0.70;0.40;;;20.70;97.10;;;;;;4977284;28;20475;-79
2022/07/07 07:03:54;;;;;;;0.60;0.60;;;20.40;97.00;;;;;;4977203;28;20441;-80
2022/07/07 07:06:22;;;;;;;0.40;0.40;;;20.30;97.00;;;;;;4977114;28;20476;-79
2022/07/07 07:08:49;;;;;;;0.70;0.60;;;20.30;98.00;;;;;;4977124;28;20483;-79
2022/07/07 07:11:16;;;;;;;0.67;0.67;;;20.40;97.90;;;;;;4976597;28;21026;-79
2022/07/07 07:13:42;;;;;;;0.60;0.60;;;20.50;98.00;;;;;;4976668;28;20484;-79
2022/07/07 07:16:09;;;;;;;0.50;0.50;;;20.70;97.60;;;;;;4976464;28;20449;-79
2022/07/07 07:18:36;;;;;;;0.47;0.47;;;20.60;96.90;;;;;;4976662;28;20456;-79
2022/07/07 07:21:03;;;;;;;0.50;0.50;;;20.60;98.10;;;;;;4976912;28;20457;-79
2022/07/07 07:23:31;;;;;;;0.80;0.70;;;20.60;98.40;;;;;;4976555;28;20456;-79
2022/07/07 07:25:58;;;;;;;0.40;0.40;;;20.60;98.10;;;;;;4976736;28;20449;-79
2022/07/07 07:28:25;;;;;;;0.50;0.50;;;20.60;97.60;;;;;;4976775;28;20480;-79
2022/07/07 07:30:52;;;;;;;0.83;0.40;;;20.60;97.90;;;;;;4976759;28;20453;-79
2022/07/07 07:33:19;;;;;;;0.70;0.67;;;20.60;97.40;;;;;;4976329;28;20854;-79
2022/07/07 07:35:47;;;;;;;0.90;0.60;;;20.50;97.50;;;;;;4976652;28;20460;-80
2022/07/07 07:38:14;;;;;;;1.30;0.80;;;20.60;97.70;;;;;;4976270;28;20472;-80
2022/07/07 07:40:42;;;;;;;1.23;0.63;;;20.80;98.30;;;;;;4976382;28;20789;-79
2022/07/07 07:43:09;;;;;;;0.63;0.53;;;21.00;97.70;;;;;;4976509;28;20467;-80
2022/07/07 07:45:37;;;;;;;0.93;0.67;;;21.20;98.00;;;;;;4976468;28;20468;-80
2022/07/07 07:48:04;;;;;;;0.50;0.50;;;21.30;97.60;;;;;;4976046;28;20472;-79
2022/07/07 07:50:32;;;;;;;0.60;0.60;;;21.30;97.70;;;;;;4976365;28;20453;-80
2022/07/07 07:52:59;;;;;;;0.50;0.50;;;21.30;97.70;;;;;;4976246;28;20531;-80
2022/07/07 07:55:26;;;;;;;0.60;0.50;;;21.40;98.50;;;;;;4976039;28;20960;-80
2022/07/07 07:57:54;;;;;;;0.90;0.70;;;21.40;98.30;;;;;;4976172;28;20495;-80
2022/07/07 08:00:22;;;;;;;0.70;0.70;;;21.40;98.50;;;;;;4976258;28;20459;-79
2022/07/07 08:02:50;;;;;;;1.17;0.90;;;21.30;99.30;;;;;;4976159;28;20455;-80
2022/07/07 08:05:18;;;;;;;0.67;0.67;;;21.20;99.00;;;;;;4976075;28;20452;-79
2022/07/07 08:07:46;;;;;;;0.97;0.70;;;21.10;99.40;;;;;;4975666;28;20523;-80
2022/07/07 08:10:14;;;;;;;0.60;0.60;;;20.90;99.30;;;;;;4976023;28;20453;-79
2022/07/07 08:12:42;;;;;;;1.47;0.90;;;20.80;99.80;;;;;;4975559;28;20477;-79
2022/07/07 08:15:11;;;;;;;1.33;0.70;;;20.60;99.60;;;;;;4975529;28;21023;-80
2022/07/07 08:17:38;;;;;;;0.90;0.60;;;20.50;99.50;;;;;;4975804;28;20829;-79
2022/07/07 08:20:07;;;;;;;0.70;0.60;;;20.30;99.70;;;;;;4975805;28;20449;-79
2022/07/07 08:22:34;;;;;;;0.93;0.90;;;20.20;99.90;;;;;;4975764;28;20452;-79
2022/07/07 08:25:01;;;;;;;0.70;0.70;;;20.10;99.90;;;;;;4975745;28;20528;-82
2022/07/07 08:27:28;;;;;;;0.50;0.50;;;19.90;99.90;;;;;;4974797;28;20471;-79
2022/07/07 08:29:55;;;;;;;0.70;0.70;;;19.80;99.90;;;;;;4975649;28;20453;-79
2022/07/07 08:32:23;;;;;;;0.53;0.50;;;19.70;99.90;;;;;;4975585;28;20488;-79
2022/07/07 08:34:49;;;;;;;0.97;0.77;;;19.50;99.90;;;;;;4975449;28;20481;-80
2022/07/07 08:37:16;;;;;;;0.90;0.63;;;19.40;99.90;;;;;;4975549;28;20477;-79
2022/07/07 08:39:44;;;;;;;1.27;0.70;;;19.40;99.90;;;;;;4975446;28;20452;-79
2022/07/07 08:42:11;;;;;;;1.77;0.70;;;19.30;99.90;;;;;;4975401;28;20464;-79
2022/07/07 08:44:38;;;;;;;1.97;0.77;;;19.30;99.90;;;;;;4975351;28;20512;-79
2022/07/07 08:49:51;;;;;;;1.57;0.93;;;19.40;99.90;;;;;;4975351;28;20888;-79
2022/07/07 08:52:17;;;;;;;0.50;0.50;;;19.50;99.90;;;;;;4975240;28;20536;-79
2022/07/07 08:54:45;;;;;;;3.40;0.60;;;19.60;99.90;;;;;;4974846;28;21019;-80
2022/07/07 08:57:12;;;;;;;1.60;0.60;;;19.70;99.90;;;;;;4975093;28;20473;-79
2022/07/07 08:59:39;;;;;;;0.60;0.60;;;19.80;99.90;;;;;;4975651;28;20440;-80
2022/07/07 09:02:06;;;;;;;0.80;0.80;;;19.90;99.90;;;;;;4974794;28;20954;-80
2022/07/07 09:04:33;;;;;;;0.70;0.70;;;20.10;99.90;;;;;;4974763;28;20453;-80
2022/07/07 09:07:03;;;;;;;0.70;0.70;;;20.30;99.90;;;;;;4975007;28;20476;-79
2022/07/07 09:09:41;;;;;;;0.80;0.70;;;20.40;99.90;;;;;;4975042;28;20440;-79
2022/07/07 09:12:09;;;;;;;1.17;0.90;;;20.60;99.90;;;;;;4974659;28;20567;-79
2022/07/07 09:14:39;;;;;;;2.43;0.93;;;20.60;99.90;;;;;;4974610;28;20489;-75
2022/07/07 09:17:16;;;;;;;1.03;0.90;;;20.70;99.90;;;;;;4974940;28;20945;-79
2022/07/07 09:19:44;;;;;;;1.00;0.80;;;20.70;99.90;;;;;;4974930;28;20433;-79
2022/07/07 09:22:13;;;;;;;0.73;0.73;;;20.70;99.90;;;;;;4974883;28;20413;-78
2022/07/07 09:24:56;;;;;;;1.10;1.00;;;20.80;99.90;;;;;;4974820;28;20448;-79
2022/07/07 09:27:23;;;;;;;1.20;1.10;;;21.00;99.90;;;;;;4974678;28;20468;-79
2022/07/07 09:29:50;;;;;;;0.80;0.80;;;21.10;99.90;;;;;;4974712;28;20449;-79
2022/07/07 09:32:16;;;;;;;1.33;0.93;;;21.30;99.90;;;;;;4974710;28;20457;-79
2022/07/07 09:34:43;;;;;;;0.80;0.80;;;21.60;99.90;;;;;;4974313;28;20867;-78
2022/07/07 09:39:58;;;;;;;0.80;0.80;;;21.90;99.90;;;;;;4974787;28;20536;-80
2022/07/07 09:42:26;;;;;;;0.50;0.50;;;21.70;99.90;;;;;;4974615;28;20448;-79
2022/07/07 09:44:55;;;;;;;1.47;0.70;;;21.40;99.90;;;;;;4974611;28;20448;-79
2022/07/07 09:47:23;;;;;;;0.60;0.60;;;20.90;99.90;;;;;;4974445;28;20840;-79
2022/07/07 09:50:06;;;;;;;1.53;0.50;;;20.40;99.90;;;;;;4974499;28;20448;-79
2022/07/07 09:52:35;;;;;;;0.93;0.70;;;20.20;99.90;;;;;;4972806;28;20500;-79
2022/07/07 09:55:08;;;;;;;0.57;0.57;;;20.10;99.90;;;;;;4974398;28;20488;-79
2022/07/07 09:57:35;;;;;;;0.60;0.60;;;20.00;99.90;;;;;;4974452;28;20476;-79
2022/07/07 10:00:01;;;;;;;0.77;0.77;;;19.90;99.90;;;;;;4974439;28;20449;-79
2022/07/07 10:02:30;;;;;;;0.43;0.43;;;19.80;99.90;;;;;;4974427;28;20449;-79
2022/07/07 10:04:58;;;;;;;0.90;0.90;;;19.80;99.90;;;;;;4974353;28;20499;-79
2022/07/07 10:07:28;;;;;;;0.70;0.70;;;19.80;99.90;;;;;;4974051;28;20503;-79
2022/07/07 10:10:02;;;;;;;1.20;1.10;;;19.80;99.90;;;;;;4974374;28;20456;-80
2022/07/07 10:12:31;;;;;;;1.37;0.80;;;19.80;99.90;;;;;;4974314;28;20484;-81
2022/07/07 10:15:01;;;;;;;1.03;0.80;;;19.80;99.90;;;;;;4974385;28;20489;-80
2022/07/07 10:17:28;;;;;;;0.70;0.70;;;19.80;99.90;;;;;;4974117;28;20980;-80
2022/07/07 10:19:56;;;;;;;1.40;1.30;;;19.80;99.90;;;;;;4973968;28;20452;-80
2022/07/07 10:22:27;;;;;;;0.73;0.73;;;19.80;99.90;;;;;;4974242;28;20456;-80
2022/07/07 10:24:54;;;;;;;0.70;0.70;;;19.80;99.90;;;;;;4974286;28;20429;-80
2022/07/07 10:27:23;;;;;;;0.60;0.60;;;20.00;99.90;;;;;;4973824;28;20988;-80
2022/07/07 10:29:53;;;;;;;0.77;0.77;;;20.20;99.90;;;;;;4974291;28;20440;-80
2022/07/07 10:32:30;;;;;;;0.60;0.60;;;20.40;99.90;;;;;;4974488;28;20459;-80
2022/07/07 10:35:00;;;;;;;1.37;0.60;;;20.60;99.90;;;;;;4974068;28;20561;-80
2022/07/07 10:37:27;;;;;;;0.80;0.80;;;20.70;99.90;;;;;;4974025;28;20469;-80
2022/07/07 10:39:56;;;;;;;1.57;0.70;;;20.80;99.90;;;;;;4974088;28;20602;-80
2022/07/07 10:42:49;;;;;;;0.80;0.80;;;20.90;99.90;;;;;;4974034;28;20449;-80
2022/07/07 10:45:19;;;;;;;1.50;0.80;;;20.80;99.90;;;;;;4973693;28;20448;-80
2022/07/07 10:47:46;;;;;;;1.23;0.60;;;20.80;99.90;;;;;;4973649;28;20473;-80
2022/07/07 10:50:30;;;;;;;1.23;0.80;;;20.70;99.90;;;;;;4975974;28;20433;-80
2022/07/07 10:52:58;;;;;;;0.80;0.80;;;20.70;99.90;;;;;;4977476;28;20439;-80
2022/07/07 10:55:50;;;;;;;2.17;0.73;;;20.70;99.90;;;;;;4977121;28;20531;-80
2022/07/07 10:58:50;;;;;;;1.07;0.80;;;20.60;99.90;;;;;;4977086;28;20805;-80
2022/07/07 11:01:18;;;;;;;0.60;0.60;;;20.50;99.90;;;;;;4977346;28;20436;-80
2022/07/07 11:03:45;;;;;;;1.30;0.67;;;20.40;99.90;;;;;;4977259;28;20460;-80
2022/07/07 11:06:11;;;;;;;0.90;0.77;;;20.30;99.90;;;;;;4976839;28;20945;-80
2022/07/07 11:08:39;;;;;;;0.77;0.77;;;20.30;99.90;;;;;;4977189;28;20521;-80
2022/07/07 11:11:07;;;;;;;0.60;0.50;;;20.20;99.90;;;;;;4976820;28;20499;-80
2022/07/07 11:13:37;;;;;;;0.70;0.50;;;20.10;99.90;;;;;;4977148;28;20438;-80
2022/07/07 11:16:19;;;;;;;0.80;0.70;;;20.10;99.90;;;;;;4976602;28;20487;-80
2022/07/07 11:18:50;;;;;;;0.70;0.60;;;20.00;99.90;;;;;;4976807;28;20770;-80
2022/07/07 11:21:17;;;;;;;0.60;0.60;;;19.90;99.90;;;;;;4976974;28;20520;-80
2022/07/07 11:23:50;;;;;;;0.50;0.50;;;19.80;99.90;;;;;;4976919;28;20452;-80
2022/07/07 11:26:19;;;;;;;0.50;0.40;;;19.80;99.90;;;;;;4976471;28;20437;-80
2022/07/07 11:28:46;;;;;;;0.50;0.50;;;19.80;99.90;;;;;;4976683;28;20461;-80
2022/07/07 11:31:13;;;;;;;0.50;0.40;;;19.90;99.90;;;;;;4976774;28;20503;-80
2022/07/07 11:33:41;;;;;;;0.40;0.40;;;20.00;99.90;;;;;;4976675;28;20453;-80
2022/07/07 11:36:14;;;;;;;0.50;0.47;;;20.10;99.90;;;;;;4976464;28;20830;-80
2022/07/07 11:38:41;;;;;;;0.80;0.50;;;20.10;99.90;;;;;;4976601;28;20484;-80
2022/07/07 11:41:08;;;;;;;0.60;0.40;;;20.20;99.90;;;;;;4976548;28;20449;-79
2022/07/07 11:43:35;;;;;;;0.47;0.47;;;20.30;99.90;;;;;;4976581;28;20444;-80
2022/07/07 11:46:02;;;;;;;0.60;0.60;;;20.20;99.90;;;;;;4976396;28;20457;-80
2022/07/07 11:48:36;;;;;;;0.60;0.40;;;20.20;99.90;;;;;;4976446;28;20445;-79
2022/07/07 11:51:05;;;;;;;0.63;0.60;;;20.20;99.90;;;;;;4976375;28;20449;-79
2022/07/07 11:53:33;;;;;;;0.53;0.53;;;20.10;99.90;;;;;;4976349;28;20452;-80
2022/07/07 11:56:00;;;;;;;0.60;0.50;;;20.20;99.90;;;;;;4976168;28;20496;-80
2022/07/07 11:58:29;;;;;;;0.50;0.50;;;20.20;99.90;;;;;;4976237;28;20809;-79
2022/07/07 12:00:56;;;;;;;0.50;0.50;;;20.30;99.90;;;;;;4976126;28;20456;-79
2022/07/07 12:03:32;;;;;;;0.70;0.50;;;20.30;99.90;;;;;;4976203;28;20523;-80
2022/07/07 12:06:00;;;;;;;0.60;0.60;;;20.30;99.90;;;;;;4976018;28;20455;-79
2022/07/07 12:08:35;;;;;;;0.40;0.40;;;20.30;99.90;;;;;;4975761;28;20445;-80
2022/07/07 12:11:02;;;;;;;0.80;0.60;;;20.30;99.90;;;;;;4975840;28;20476;-77
2022/07/07 12:13:29;;;;;;;0.50;0.50;;;20.30;99.90;;;;;;4976017;28;20437;-77
2022/07/07 12:15:57;;;;;;;0.60;0.60;;;20.30;99.90;;;;;;4975839;28;20488;-77
2022/07/07 12:18:34;;;;;;;0.60;0.50;;;20.30;99.90;;;;;;4975556;28;20945;-78
2022/07/07 12:21:02;;;;;;;0.47;0.47;;;20.30;99.90;;;;;;4975894;28;20425;-78
2022/07/07 12:23:29;;;;;;;0.80;0.60;;;20.40;99.90;;;;;;4975811;28;20448;-78
2022/07/07 12:26:12;;;;;;;0.60;0.60;;;20.50;99.90;;;;;;4975786;28;20429;-77
2022/07/07 12:28:40;;;;;;;0.90;0.90;;;20.60;99.90;;;;;;4975455;28;20418;-77
2022/07/07 12:31:08;;;;;;;0.70;0.70;;;20.60;99.90;;;;;;4975516;28;20460;-77
2022/07/07 12:33:37;;;;;;;0.50;0.50;;;20.60;99.90;;;;;;4975364;28;20436;-77
2022/07/07 12:36:12;;;;;;;1.00;1.00;;;20.50;99.90;;;;;;4975100;28;20873;-77
2022/07/07 12:38:40;;;;;;;0.63;0.63;;;20.50;99.90;;;;;;4975530;28;20433;-78
2022/07/07 12:41:09;;;;;;;0.60;0.60;;;20.40;99.90;;;;;;4975427;28;20472;-78
2022/07/07 12:43:37;;;;;;;1.00;0.80;;;20.40;99.90;;;;;;4975400;28;20449;-77
2022/07/07 12:46:09;;;;;;;0.50;0.50;;;20.40;99.90;;;;;;4975011;28;20948;-78
2022/07/07 12:48:48;;;;;;;0.80;0.70;;;20.50;99.90;;;;;;4975472;28;20468;-78
2022/07/07 12:51:15;;;;;;;1.20;1.10;;;20.50;99.90;;;;;;4975055;28;20476;-78
2022/07/07 12:53:43;;;;;;;0.60;0.53;;;20.60;99.90;;;;;;4975244;28;20452;-78
2022/07/07 12:56:15;;;;;;;0.90;0.57;;;20.50;99.90;;;;;;4975036;28;20512;-77
2022/07/07 12:58:47;;;;;;;0.60;0.60;;;20.50;99.90;;;;;;4975319;28;20848;-77